Pt. Reyes RCA field Weather observations

Data are for 10 minute period ending at time listed.
 Day   Time   Solar   Ave.   Ave.  Ave.  Vector    Max.   Stn.   Total 
  of    of     Rad.   Air    Rel.  Wind   Wind     Wind   Baro. Precip.
Year   Day            Temp.  Hum.  Speed  Dir.     Gust   Pres.        
2014   (PST)   W/m2    F      %     mph   deg.      mph    mb.    in.  
-----------------------------------------------------------------------
 231    8:30  124.0    59   94.9     8    152.2    10.6   1007.5  0.00  
 231    8:40  152.0    59   94.7     7    152.9    10.4   1007.8  0.00  
 231    8:50  178.0    59   93.9     8    140.3    10.2   1007.8  0.00  
 231    9:00  171.0    60   93.4     7    146.9     9.7   1007.8  0.00  
 231    9:10  170.0    60   92.6     8    153.6    11.0   1007.8  0.00  
 231    9:20  125.0    60   92.3     7    155.6    11.0   1007.8  0.00  
 231    9:30  140.0    60   92.4     8    152.9    10.3   1007.8  0.00  
 231    9:40  161.0    60   92.7     7    159.7    10.7   1007.8  0.00  
 231    9:50  143.0    60   93.0    10    159.8    12.3   1007.8  0.00  
 231   10:00  178.0    59   93.1     9    166.1    12.1   1008.1  0.00  
 231   10:10  216.0    60   92.2     9    158.5    12.6   1007.8  0.00  
 231   10:20  300.0    60   90.7    10    156.0    13.0   1007.8  0.00  
 231   10:30  443.0    62   87.7    11    155.8    14.2   1007.8  0.00  
 231   10:40  353.0    62   83.4    10    167.7    12.9   1007.8  0.00  
 231   10:50  296.0    62   83.1    10    156.5    13.9   1008.1  0.00  
 231   11:00  268.0    62   82.9     9    160.1    11.8   1008.1  0.00  
 231   11:10  269.0    62   81.5     9    172.0    12.5   1008.1  0.00  
 231   11:20  325.0    63   80.4     9    161.3    12.3   1008.1  0.00  
 231   11:30  362.0    63   78.4     8    158.7    12.1   1008.1  0.00  
 231   11:40  270.0    63   79.4    10    169.4    14.7   1008.1  0.00  
 231   11:50  267.0    63   80.6    10    164.3    13.2   1008.1  0.00  
 231   12:00  275.0    62   80.7    11    164.2    13.8   1008.1  0.00  
 231   12:10  385.0    63   81.4    11    158.9    14.8   1008.1  0.00  
 231   12:20  427.0    63   80.2    10    163.2    15.1   1008.1  0.00  
 231   12:30  451.0    64   78.1    11    168.5    15.9   1007.8  0.00  
 231   12:40  509.0    64   76.3    10    162.7    13.4   1007.8  0.00  
 231   12:50  517.0    65   75.5    10    173.2    14.1   1007.8  0.00  
 231   13:00  480.0    65   75.5    10    170.9    14.6   1007.8  0.00  
 231   13:10  467.0    64   76.9    11    172.0    15.3   1007.8  0.00  
 231   13:20  463.0    64   76.8    11    162.2    15.4   1007.8  0.00  
 231   13:30  475.0    65   74.7    11    165.6    17.7   1007.5  0.00  
 231   13:40  484.0    65   74.1    12    157.7    16.0   1007.5  0.00  
 231   13:50  369.0    65   75.1    11    163.1    16.0   1007.5  0.00  
 231   14:00  290.0    64   76.8    11    163.9    14.0   1007.5  0.00  
 231   14:10  301.0    64   78.9    12    167.7    16.4   1007.1  0.00  
 231   14:20  292.0    64   79.9    12    167.8    16.4   1007.1  0.00  
 231   14:30  215.0    64   81.7    11    172.7    15.1   1007.1  0.00  
 231   14:40  227.0    63   84.1    12    164.3    15.1   1007.1  0.00  
 231   14:50  269.0    63   83.7    12    167.1    15.0   1007.1  0.00  
 231   15:00  202.0    62   85.1    11    173.4    14.0   1007.1  0.00  
 231   15:10  215.0    62   86.1    11    180.7    14.0   1007.1  0.00  
 231   15:20  194.0    63   83.1    11    180.1    14.8   1007.1  0.00  
 231   15:30  227.0    63   80.9    10    184.4    14.8   1007.1  0.00  
 231   15:40  206.0    63   79.3    13    171.4    16.4   1007.1  0.00  
 231   15:50  192.0    63   80.0    12    185.3    15.3   1006.8  0.00  
 231   16:00  167.0    63   80.8    11    177.2    15.3   1006.8  0.00  
 231   16:10  188.0    63   81.5    10    166.0    13.4   1006.8  0.00  
 231   16:20  150.0    63   81.4    10    174.1    14.5   1006.8  0.00  
 231   16:30  154.0    63   82.5    11    166.1    14.2   1006.8  0.00  
 231   16:40  131.0    62   83.7    11    160.7    14.8   1006.8  0.00  
 231   16:50  119.0    62   84.2    11    173.0    13.6   1006.8  0.00  
 231   17:00   92.0    62   85.2    10    167.7    14.0   1006.8  0.00  
 231   17:10   72.0    62   85.4    10    172.2    13.7   1006.8  0.00  
 231   17:20   63.0    62   84.3    10    181.8    13.9   1006.8  0.00  
 231   17:30   57.0    62   83.8    10    174.0    14.8   1006.8  0.00  
 231   17:40   50.0    62   83.8    11    176.4    14.8   1006.8  0.00  
 231   17:50   47.0    62   83.7    10    180.5    12.6   1006.8  0.00  
 231   18:00   37.0    62   84.4     9    187.7    13.4   1006.8  0.00  
 231   18:10   28.0    61   84.8    10    190.9    13.7   1006.8  0.00  
 231   18:20   20.0    61   85.3    12    188.7    15.3   1006.8  0.00  
 231   18:30   15.0    61   85.7    10    185.2    15.5   1006.8  0.00  
 231   18:40    9.0    61   85.9    11    179.9    13.7   1006.8  0.00  
 231   18:50    6.0    61   86.5    11    182.4    13.6   1006.8  0.00  
 231   19:00    2.0    60   87.2     9    182.5    13.0   1006.8  0.00  
 231   19:10    0.0    60   87.8     9    198.3    12.2   1006.8  0.00  
 231   19:20    0.0    60   87.9     9    208.1    11.0   1007.1  0.00  
 231   19:30    0.0    60   88.1     8    212.1    10.4   1007.1  0.00  
 231   19:40    0.0    60   89.0     8    220.0    10.6   1007.5  0.00  
 231   19:50    0.0    60   89.3     7    215.2    10.3   1007.5  0.00  
 231   20:00    0.0    60   89.7     8    209.2    10.2   1007.5  0.00  
 231   20:10    0.0    60   90.1     8    214.0    10.4   1007.8  0.00  
 231   20:20    0.0    59   90.8     7    221.0    10.9   1007.8  0.00  
 231   20:30    0.0    59   91.5     8    218.7    10.2   1007.8  0.00  
 231   20:40    0.0    59   92.0     6    204.1     8.5   1007.8  0.00  
 231   20:50    0.0    59   92.2     7    205.2     9.3   1007.8  0.00  
 231   21:00    0.0    59   92.5     6    212.0     8.0   1007.8  0.00  
 231   21:10    0.0    59   92.7     5    223.7     6.8   1007.8  0.00  
 231   21:20    0.0    59   92.7     6    228.9     8.2   1007.8  0.00  
 231   21:30    0.0    59   92.8     5    222.3     6.9   1007.8  0.00  
 231   21:40    0.0    59   92.9     6    222.0     7.6   1007.8  0.00  
 231   21:50    0.0    59   93.1     5    232.2     7.3   1007.8  0.00  
 231   22:00    0.0    59   93.3     6    241.8     7.6   1007.8  0.00  
 231   22:10    0.0    59   93.7     6    249.6     7.5   1007.8  0.00  
 231   22:20    0.0    59   94.0     5    243.5     7.5   1007.8  0.00  
 231   22:30    0.0    59   94.3     5    246.1     8.1   1007.8  0.00  
 231   22:40    0.0    59   94.6     6    239.9     7.4   1007.8  0.00  
 231   22:50    0.0    59   95.0     6    242.4     7.8   1008.1  0.00  
 231   23:00    0.0    59   95.2     6    245.1     8.0   1008.1  0.00  
 231   23:10    0.0    58   95.4     5    239.8     7.5   1008.1  0.00  
 231   23:20    0.0    58   95.6     5    235.8     8.2   1008.1  0.00  
 231   23:30    0.0    58   95.8     6    237.8     8.1   1008.1  0.00  
 231   23:40    0.0    58   95.9     4    243.8     5.9   1008.1  0.00  
 231   23:50    0.0    58   96.0     4    233.3     6.3   1008.1  0.00  
 232    0:00    0.0    58   96.1     5    249.5     6.3   1008.1  0.00  
 232    0:10    0.0    58   96.2     5    249.9     6.7   1007.8  0.00  
 232    0:20    0.0    58   96.3     5    247.6     6.8   1007.8  0.00  
 232    0:30    0.0    58   96.4     4    247.3     5.4   1007.8  0.00  
 232    0:40    0.0    58   96.5     5    249.3     6.4   1007.5  0.00  
 232    0:50    0.0    58   96.5     4    247.0     6.4   1007.8  0.00  
 232    1:00    0.0    58   96.6     4    246.0     6.9   1007.8  0.00  
 232    1:10    0.0    58   96.6     4    236.7     5.9   1007.8  0.01  
 232    1:20    0.0    58   96.6     5    231.6     9.1   1007.8  0.00  
 232    1:30    0.0    58   96.6     6    241.2     7.5   1007.8  0.00  
 232    1:40    0.0    58   96.6     4    248.9     5.9   1007.8  0.00  
 232    1:50    0.0    58   96.7     4    241.0     5.8   1007.8  0.00  
 232    2:00    0.0    58   96.7     4    235.0     7.2   1007.8  0.00  
 232    2:10    0.0    58   96.7     5    232.6     6.4   1007.8  0.00  
 232    2:20    0.0    58   96.7     5    215.7     6.1   1007.8  0.00  
 232    2:30    0.0    58   96.7     5    220.0     6.4   1007.8  0.00  
 232    2:40    0.0    58   96.7     4    214.7     5.0   1007.8  0.00  
 232    2:50    0.0    58   96.7     4    202.7     6.1   1007.5  0.00  
 232    3:00    0.0    58   96.7     4    208.3     4.9   1007.8  0.00  
 232    3:10    0.0    58   96.7     4    205.8     7.5   1007.8  0.00  
 232    3:20    0.0    58   96.7     6    187.8     8.8   1007.8  0.00  
 232    3:30    0.0    58   96.5     6    182.0     7.8   1007.5  0.00  
 232    3:40    0.0    58   96.1     7    172.9     9.6   1007.5  0.00  
 232    3:50    0.0    59   95.6     6    174.6     8.5   1007.8  0.00  
 232    4:00    0.0    59   95.3     6    182.9     8.4   1007.8  0.00  
 232    4:10    0.0    59   95.1     7    186.1    10.7   1007.8  0.00  
 232    4:20    0.0    59   95.1     7    190.5    10.2   1007.8  0.00  
 232    4:30    0.0    58   95.3     7    187.4     8.9   1008.1  0.00  
 232    4:40    0.0    58   95.5     6    192.6     8.0   1008.1  0.00  
 232    4:50    0.0    58   95.7     5    194.0     6.2   1008.1  0.00  
 232    5:00    0.0    58   95.8     4    194.0     5.8   1008.1  0.00  
 232    5:10    0.0    58   95.9     4    195.6     6.0   1008.1  0.00  
 232    5:20    0.0    58   96.0     4    197.4     6.3   1008.1  0.00  
 232    5:30    0.0    58   96.1     5    192.6     6.9   1008.1  0.00  
 232    5:40    0.0    58   96.2     5    200.0     7.0   1008.1  0.00  
 232    5:50    4.0    58   96.3     6    196.5     7.1   1008.1  0.00  
 232    6:00    7.0    58   96.3     6    197.3     9.4   1008.5  0.00  
 232    6:10    8.0    58   96.4     7    199.4     8.4   1008.5  0.00  
 232    6:20   13.0    58   96.4     6    195.2     8.8   1008.5  0.00  
 232    6:30   18.0    58   96.4     5    197.9     7.2   1008.8  0.00  
 232    6:40   19.0    58   96.4     5    195.4     6.8   1008.8  0.00  
 232    6:50   23.0    58   96.4     5    193.3     7.0   1008.8  0.00  
 232    7:00   27.0    58   96.3     6    195.4    10.2   1009.1  0.00  
 232    7:10   47.0    58   96.2     7    185.3     9.4   1009.1  0.00  
 232    7:20   61.0    59   96.1     7    186.6     9.3   1009.1  0.00  
 232    7:30   67.0    59   95.8     8    179.4    10.4   1009.1  0.00  
 232    7:40   80.0    59   95.4     8    178.6    10.4   1009.1  0.00  
 232    7:50   66.0    59   94.7     9    166.1    12.1   1009.1  0.00  
 232    8:00   62.0    59   94.0     7    176.7    10.7   1009.5  0.00  
 232    8:10   63.0    59   94.2     6    197.0     9.3   1009.5  0.00  
 232    8:20   72.0    59   94.5     5    228.2     6.4   1009.5  0.00  

Return to Pt. Reyes graphs page.


Western Regional Climate Center,wrcc@dri.edu